createdAt,value
2023-03-21T00:00:28.909Z,23.08
2023-03-21T04:48:33.102Z,23.05
2023-03-21T04:52:33.156Z,23.05
2023-03-21T05:00:33.158Z,23.05
2023-03-21T05:04:33.175Z,23.04
2023-03-21T05:12:33.285Z,23.05
2023-03-21T05:20:33.356Z,23.04
2023-03-21T05:24:33.384Z,23.04
2023-03-21T05:28:33.449Z,23.04
2023-03-21T05:32:33.476Z,23.04
2023-03-21T09:00:41.681Z,23.76
2023-03-21T09:40:41.726Z,24.23
2023-03-21T11:12:39.542Z,22.55
2023-03-21T11:16:41.032Z,22.74
2023-03-21T11:20:40.083Z,22.93
2023-03-21T11:24:39.658Z,23.01
2023-03-21T11:28:40.045Z,23.13
2023-03-21T11:32:40.048Z,23.13
2023-03-21T11:40:40.050Z,23.06
2023-03-21T11:44:40.055Z,23.24
2023-03-21T11:52:40.078Z,23.75
2023-03-21T12:08:41.579Z,24.17
2023-03-21T12:28:41.066Z,24.20
2023-03-21T15:20:47.425Z,23.58
2023-03-21T15:28:47.136Z,23.54
2023-03-21T15:32:48.487Z,23.54
2023-03-21T15:36:47.277Z,23.54
2023-03-21T15:40:47.142Z,23.55
2023-03-21T15:44:47.148Z,23.56
2023-03-21T15:48:47.148Z,23.55
2023-03-21T15:52:47.266Z,23.54
2023-03-21T15:56:47.043Z,23.51
2023-03-21T16:00:47.671Z,23.50
2023-03-21T16:04:47.654Z,23.47
2023-03-21T16:08:47.577Z,23.45
2023-03-21T16:12:47.653Z,23.44
2023-03-21T16:16:47.706Z,23.42
2023-03-21T16:20:47.654Z,23.42
2023-03-21T16:24:47.775Z,23.40
2023-03-21T16:28:47.579Z,23.39
2023-03-21T16:32:47.763Z,23.37
2023-03-21T16:36:47.979Z,23.36
2023-03-21T16:40:48.253Z,23.36
2023-03-21T16:44:48.663Z,23.34
2023-03-21T16:48:48.244Z,23.34
2023-03-21T16:52:48.249Z,23.34
2023-03-21T16:56:48.298Z,23.34
2023-03-21T17:00:48.302Z,23.33
2023-03-21T17:04:48.600Z,23.32
2023-03-21T17:08:48.837Z,23.32
2023-03-21T17:12:48.890Z,23.31
2023-03-21T21:05:21.494Z,22.86
2023-03-21T21:08:52.530Z,22.86
2023-03-21T21:12:52.585Z,22.85
2023-03-21T21:16:52.848Z,22.85
2023-03-21T21:20:52.620Z,22.85
2023-03-21T21:24:52.647Z,22.86
2023-03-21T21:28:52.705Z,22.86
2023-03-21T21:32:52.712Z,22.86
2023-03-21T21:36:52.734Z,22.86
2023-03-21T21:40:52.775Z,22.88
2023-03-21T21:44:52.822Z,22.88
2023-03-21T21:48:52.817Z,22.88
2023-03-21T21:52:53.034Z,22.90
2023-03-21T21:56:52.839Z,22.91
2023-03-21T22:00:52.933Z,22.92
2023-03-21T22:04:52.893Z,22.94
2023-03-21T22:08:52.877Z,22.95
2023-03-21T22:12:52.873Z,22.96
2023-03-21T22:16:52.886Z,22.97
2023-03-21T22:20:52.837Z,22.98
2023-03-21T22:24:52.850Z,22.99
2023-03-21T22:28:52.866Z,22.99
2023-03-21T22:33:07.992Z,22.99
2023-03-21T22:36:52.912Z,23.00
2023-03-21T22:40:52.936Z,23.00
2023-03-21T22:44:52.963Z,23.01
2023-03-21T23:32:52.980Z,23.04
2023-03-21T23:36:53.000Z,23.04
2023-03-21T23:40:52.991Z,23.04
2023-03-21T23:44:52.996Z,23.05
2023-03-21T23:48:53.018Z,23.04
2023-03-21T23:52:53.031Z,23.05
2023-03-21T23:56:53.020Z,23.04
